Terminal Aerodrome Forecast
Issued by NWS

Home | Current Version | Previous Version | Text Only | Print | Product List | Glossary On
Versions: 1 2 3 4 5 6 7 8 9 10 11 12 13 14 15 16 17 18 19 20 21 22 23 24 25 26 27 28 29 30 31 32 33 34 35 36 37 38 39 40 41 42 43 44
000
FTUS43 KMKX 290520
TAFENW
TAF
KENW 290520Z 2906/3006 13005KT P6SM BKN200
     FM291000 15004KT P6SM VCSH BKN050
     FM291400 19008KT P6SM VCSH BKN070
     FM291500 19010KT P6SM VCTS SCT035 BKN070CB
     FM291800 19011KT P6SM BKN050
     FM292100 19011KT P6SM VCTS BKN050CB
     FM300500 22006KT P6SM SHRA VCTS OVC050CB=

USA.gov is the U.S. government's official web portal to all federal, state and local government web resources and services.